ENBN

Brønnøysund Airport

Brønnøy, Norway
TAF ENBN 190800Z 1909/1918 18008KT 9999 -SHRA FEW015TCU BKN025
Issued Valid From Valid To
Oct-19 @ 08:00 UTC
(an hour ago)
Oct-19 @ 09:00 UTC
(24 minutes ago)
Oct-19 @ 18:00 UTC
(in 9 hours)
Oct-19 @ 09:00 to Oct-19 @ 18:00
TAF ENBN 190800Z 1909/1918 18008KT 9999 -SHRA FEW015TCU BKN025
Wind Visibility Clouds Conditions
180° at 8 knots 10,000+ meters
  • Few at 1,500' AGL
  • Broken at 2,500' AGL
  • Light Rain
TAF ENBN 190800Z 1909/1918 18008KT 9999 -SHRA FEW015TCU BKN025
Issued Oct-19 @ 08:00 UTC
(an hour ago)
Valid From Oct-19 @ 09:00 UTC
(24 minutes ago)
Valid To Oct-19 @ 18:00 UTC
(in 9 hours)
Oct-19 @ 09:00 - Oct-19 @ 18:00
Wind Visibility
180° at 8 knots 10,000+ meters
Clouds
  • Few at 1,500' AGL
  • Broken at 2,500' AGL
Conditions
  • Light Rain